sensor_id;sensor_type;location;lat;lon;timestamp;temperature;humidity
21261;DHT22;10788;47.930;9.766;2024-03-22T00:00:57;6.90;99.90
21261;DHT22;10788;47.930;9.766;2024-03-22T00:03:23;6.90;99.90
21261;DHT22;10788;47.930;9.766;2024-03-22T00:05:48;6.90;99.90
21261;DHT22;10788;47.930;9.766;2024-03-22T00:08:14;6.90;99.90
21261;DHT22;10788;47.930;9.766;2024-03-22T00:10:39;6.90;99.90
21261;DHT22;10788;47.930;9.766;2024-03-22T00:13:05;6.90;99.90
21261;DHT22;10788;47.930;9.766;2024-03-22T00:15:31;7.00;99.90
21261;DHT22;10788;47.930;9.766;2024-03-22T00:17:56;6.90;99.90
21261;DHT22;10788;47.930;9.766;2024-03-22T00:20:22;6.90;99.90
21261;DHT22;10788;47.930;9.766;2024-03-22T00:22:48;6.90;99.90
21261;DHT22;10788;47.930;9.766;2024-03-22T00:25:13;6.90;99.90
21261;DHT22;10788;47.930;9.766;2024-03-22T00:27:39;6.90;99.90
21261;DHT22;10788;47.930;9.766;2024-03-22T00:30:05;6.90;99.90
21261;DHT22;10788;47.930;9.766;2024-03-22T00:32:31;6.90;99.90
21261;DHT22;10788;47.930;9.766;2024-03-22T00:34:56;6.90;99.90
21261;DHT22;10788;47.930;9.766;2024-03-22T00:37:22;6.90;99.90
21261;DHT22;10788;47.930;9.766;2024-03-22T00:39:48;6.90;99.90
21261;DHT22;10788;47.930;9.766;2024-03-22T00:42:13;6.90;99.90
21261;DHT22;10788;47.930;9.766;2024-03-22T00:44:39;6.90;99.90
21261;DHT22;10788;47.930;9.766;2024-03-22T00:47:05;6.90;99.90
21261;DHT22;10788;47.930;9.766;2024-03-22T00:49:31;6.80;99.90
21261;DHT22;10788;47.930;9.766;2024-03-22T00:51:57;6.80;99.90
21261;DHT22;10788;47.930;9.766;2024-03-22T00:54:23;6.70;99.90
21261;DHT22;10788;47.930;9.766;2024-03-22T00:56:48;6.70;99.90
21261;DHT22;10788;47.930;9.766;2024-03-22T00:59:14;6.70;99.90
21261;DHT22;10788;47.930;9.766;2024-03-22T01:01:40;6.60;99.90
21261;DHT22;10788;47.930;9.766;2024-03-22T01:04:05;6.60;99.90
21261;DHT22;10788;47.930;9.766;2024-03-22T01:06:34;6.50;99.90
21261;DHT22;10788;47.930;9.766;2024-03-22T01:09:00;6.50;99.90
21261;DHT22;10788;47.930;9.766;2024-03-22T01:11:26;6.50;99.90
21261;DHT22;10788;47.930;9.766;2024-03-22T01:13:51;6.40;99.90
21261;DHT22;10788;47.930;9.766;2024-03-22T01:16:17;6.40;99.90
21261;DHT22;10788;47.930;9.766;2024-03-22T01:18:43;6.40;99.90
21261;DHT22;10788;47.930;9.766;2024-03-22T01:21:08;6.40;99.90
21261;DHT22;10788;47.930;9.766;2024-03-22T01:23:34;6.40;99.90
21261;DHT22;10788;47.930;9.766;2024-03-22T01:26:00;6.40;99.90
21261;DHT22;10788;47.930;9.766;2024-03-22T01:28:25;6.30;99.90
21261;DHT22;10788;47.930;9.766;2024-03-22T01:30:51;6.30;99.90
21261;DHT22;10788;47.930;9.766;2024-03-22T01:33:16;6.30;99.90
21261;DHT22;10788;47.930;9.766;2024-03-22T01:35:42;6.20;99.90
21261;DHT22;10788;47.930;9.766;2024-03-22T01:38:08;6.20;99.90
21261;DHT22;10788;47.930;9.766;2024-03-22T01:40:33;6.20;99.90
21261;DHT22;10788;47.930;9.766;2024-03-22T01:43:00;6.20;99.90
21261;DHT22;10788;47.930;9.766;2024-03-22T01:45:27;6.20;99.90
21261;DHT22;10788;47.930;9.766;2024-03-22T01:47:56;6.10;99.90
21261;DHT22;10788;47.930;9.766;2024-03-22T01:50:23;6.10;99.90
21261;DHT22;10788;47.930;9.766;2024-03-22T01:52:49;6.10;99.90
21261;DHT22;10788;47.930;9.766;2024-03-22T01:55:14;6.10;99.90
21261;DHT22;10788;47.930;9.766;2024-03-22T01:57:40;6.10;99.90
21261;DHT22;10788;47.930;9.766;2024-03-22T02:00:08;6.10;99.90
21261;DHT22;10788;47.930;9.766;2024-03-22T02:02:34;6.10;99.90
21261;DHT22;10788;47.930;9.766;2024-03-22T02:05:14;6.10;99.90
21261;DHT22;10788;47.930;9.766;2024-03-22T02:07:41;6.00;99.90
21261;DHT22;10788;47.930;9.766;2024-03-22T02:10:09;6.00;99.90
21261;DHT22;10788;47.930;9.766;2024-03-22T02:12:39;6.00;99.90
21261;DHT22;10788;47.930;9.766;2024-03-22T02:15:05;6.00;99.90
21261;DHT22;10788;47.930;9.766;2024-03-22T02:17:32;6.00;99.90
21261;DHT22;10788;47.930;9.766;2024-03-22T02:19:59;5.90;99.90
21261;DHT22;10788;47.930;9.766;2024-03-22T02:22:26;5.90;99.90
21261;DHT22;10788;47.930;9.766;2024-03-22T02:24:52;5.90;99.90
21261;DHT22;10788;47.930;9.766;2024-03-22T02:27:17;5.90;99.90
21261;DHT22;10788;47.930;9.766;2024-03-22T02:29:43;5.90;99.90
21261;DHT22;10788;47.930;9.766;2024-03-22T02:32:09;5.90;99.90
21261;DHT22;10788;47.930;9.766;2024-03-22T02:34:35;5.90;99.90
21261;DHT22;10788;47.930;9.766;2024-03-22T02:37:01;5.90;99.90
21261;DHT22;10788;47.930;9.766;2024-03-22T02:39:27;5.90;99.90
21261;DHT22;10788;47.930;9.766;2024-03-22T02:41:54;5.90;99.90
21261;DHT22;10788;47.930;9.766;2024-03-22T02:44:20;5.90;99.90
21261;DHT22;10788;47.930;9.766;2024-03-22T02:46:45;5.90;99.90
21261;DHT22;10788;47.930;9.766;2024-03-22T02:49:12;5.80;99.90
21261;DHT22;10788;47.930;9.766;2024-03-22T02:51:38;5.80;99.90
21261;DHT22;10788;47.930;9.766;2024-03-22T02:54:04;5.80;99.90
21261;DHT22;10788;47.930;9.766;2024-03-22T02:56:30;5.80;99.90
21261;DHT22;10788;47.930;9.766;2024-03-22T02:58:56;5.80;99.90
21261;DHT22;10788;47.930;9.766;2024-03-22T03:01:21;5.80;99.90
21261;DHT22;10788;47.930;9.766;2024-03-22T03:03:47;5.70;99.90
21261;DHT22;10788;47.930;9.766;2024-03-22T03:06:13;5.70;99.90
21261;DHT22;10788;47.930;9.766;2024-03-22T03:08:39;5.60;99.90
21261;DHT22;10788;47.930;9.766;2024-03-22T03:11:05;5.60;99.90
21261;DHT22;10788;47.930;9.766;2024-03-22T03:13:30;5.50;99.90
21261;DHT22;10788;47.930;9.766;2024-03-22T03:15:57;5.50;99.90
21261;DHT22;10788;47.930;9.766;2024-03-22T03:18:22;5.50;99.90
21261;DHT22;10788;47.930;9.766;2024-03-22T03:20:48;5.40;99.90
21261;DHT22;10788;47.930;9.766;2024-03-22T03:23:14;5.40;99.90
21261;DHT22;10788;47.930;9.766;2024-03-22T03:25:39;5.40;99.90
21261;DHT22;10788;47.930;9.766;2024-03-22T03:28:05;5.40;99.90
21261;DHT22;10788;47.930;9.766;2024-03-22T03:30:35;5.40;99.90
21261;DHT22;10788;47.930;9.766;2024-03-22T03:33:01;5.40;99.90
21261;DHT22;10788;47.930;9.766;2024-03-22T03:35:27;5.40;99.90
21261;DHT22;10788;47.930;9.766;2024-03-22T03:37:55;5.40;99.90
21261;DHT22;10788;47.930;9.766;2024-03-22T03:40:21;5.40;99.90
21261;DHT22;10788;47.930;9.766;2024-03-22T03:42:53;5.40;99.90
21261;DHT22;10788;47.930;9.766;2024-03-22T03:45:19;5.40;99.90
21261;DHT22;10788;47.930;9.766;2024-03-22T03:47:44;5.40;99.90
21261;DHT22;10788;47.930;9.766;2024-03-22T03:50:10;5.40;99.90
21261;DHT22;10788;47.930;9.766;2024-03-22T03:52:36;5.40;99.90
21261;DHT22;10788;47.930;9.766;2024-03-22T03:55:01;5.40;99.90
21261;DHT22;10788;47.930;9.766;2024-03-22T03:57:27;5.40;99.90
21261;DHT22;10788;47.930;9.766;2024-03-22T03:59:53;5.40;99.90
21261;DHT22;10788;47.930;9.766;2024-03-22T04:02:18;5.40;99.90
21261;DHT22;10788;47.930;9.766;2024-03-22T04:04:44;5.40;99.90
21261;DHT22;10788;47.930;9.766;2024-03-22T04:07:10;5.40;99.90
21261;DHT22;10788;47.930;9.766;2024-03-22T04:09:35;5.40;99.90
21261;DHT22;10788;47.930;9.766;2024-03-22T04:12:01;5.50;99.90
21261;DHT22;10788;47.930;9.766;2024-03-22T04:14:27;5.50;99.90
21261;DHT22;10788;47.930;9.766;2024-03-22T04:16:53;5.50;99.90
21261;DHT22;10788;47.930;9.766;2024-03-22T04:19:21;5.50;99.90
21261;DHT22;10788;47.930;9.766;2024-03-22T04:21:49;5.60;99.90
21261;DHT22;10788;47.930;9.766;2024-03-22T04:24:15;5.60;99.90
21261;DHT22;10788;47.930;9.766;2024-03-22T04:26:40;5.60;99.90
21261;DHT22;10788;47.930;9.766;2024-03-22T04:29:06;5.60;99.90
21261;DHT22;10788;47.930;9.766;2024-03-22T04:31:32;5.60;99.90
21261;DHT22;10788;47.930;9.766;2024-03-22T04:33:57;5.50;99.90
21261;DHT22;10788;47.930;9.766;2024-03-22T04:36:23;5.50;99.90
21261;DHT22;10788;47.930;9.766;2024-03-22T04:38:49;5.40;99.90
21261;DHT22;10788;47.930;9.766;2024-03-22T04:41:14;5.30;99.90
21261;DHT22;10788;47.930;9.766;2024-03-22T04:43:40;5.30;99.90
21261;DHT22;10788;47.930;9.766;2024-03-22T04:46:06;5.30;99.90
21261;DHT22;10788;47.930;9.766;2024-03-22T04:48:31;5.30;99.90
21261;DHT22;10788;47.930;9.766;2024-03-22T04:50:57;5.30;99.90
21261;DHT22;10788;47.930;9.766;2024-03-22T04:53:23;5.30;99.90
21261;DHT22;10788;47.930;9.766;2024-03-22T04:55:49;5.30;99.90
21261;DHT22;10788;47.930;9.766;2024-03-22T04:58:18;5.20;99.90
21261;DHT22;10788;47.930;9.766;2024-03-22T05:00:45;5.20;99.90
21261;DHT22;10788;47.930;9.766;2024-03-22T05:03:11;5.20;99.90
21261;DHT22;10788;47.930;9.766;2024-03-22T05:05:38;5.20;99.90
21261;DHT22;10788;47.930;9.766;2024-03-22T05:08:04;5.20;99.90
21261;DHT22;10788;47.930;9.766;2024-03-22T05:10:30;5.20;99.90
21261;DHT22;10788;47.930;9.766;2024-03-22T05:12:56;5.20;99.90
21261;DHT22;10788;47.930;9.766;2024-03-22T05:15:22;5.20;99.90
21261;DHT22;10788;47.930;9.766;2024-03-22T05:17:49;5.20;99.90
21261;DHT22;10788;47.930;9.766;2024-03-22T05:20:15;5.20;99.90
21261;DHT22;10788;47.930;9.766;2024-03-22T05:22:41;5.20;99.90
21261;DHT22;10788;47.930;9.766;2024-03-22T05:25:08;5.20;99.90
21261;DHT22;10788;47.930;9.766;2024-03-22T05:27:34;5.20;99.90
21261;DHT22;10788;47.930;9.766;2024-03-22T05:30:00;5.20;99.90
21261;DHT22;10788;47.930;9.766;2024-03-22T05:32:26;5.20;99.90
21261;DHT22;10788;47.930;9.766;2024-03-22T05:34:52;5.30;99.90
21261;DHT22;10788;47.930;9.766;2024-03-22T05:37:18;5.30;99.90
21261;DHT22;10788;47.930;9.766;2024-03-22T05:39:44;5.40;99.90
21261;DHT22;10788;47.930;9.766;2024-03-22T05:42:10;5.40;99.90
21261;DHT22;10788;47.930;9.766;2024-03-22T05:44:35;5.50;99.90
21261;DHT22;10788;47.930;9.766;2024-03-22T05:47:01;5.50;99.90
21261;DHT22;10788;47.930;9.766;2024-03-22T05:49:27;5.50;99.90
21261;DHT22;10788;47.930;9.766;2024-03-22T05:51:52;5.60;99.90
21261;DHT22;10788;47.930;9.766;2024-03-22T05:54:18;5.60;99.90
21261;DHT22;10788;47.930;9.766;2024-03-22T05:56:45;5.60;99.90
21261;DHT22;10788;47.930;9.766;2024-03-22T05:59:11;5.70;99.90
21261;DHT22;10788;47.930;9.766;2024-03-22T06:01:37;5.70;99.90
21261;DHT22;10788;47.930;9.766;2024-03-22T06:04:04;5.70;99.90
21261;DHT22;10788;47.930;9.766;2024-03-22T06:06:34;5.70;99.90
21261;DHT22;10788;47.930;9.766;2024-03-22T06:09:00;5.70;99.90
21261;DHT22;10788;47.930;9.766;2024-03-22T06:11:32;5.80;99.90
21261;DHT22;10788;47.930;9.766;2024-03-22T06:13:58;5.80;99.90
21261;DHT22;10788;47.930;9.766;2024-03-22T06:16:23;5.80;99.90
21261;DHT22;10788;47.930;9.766;2024-03-22T06:18:49;5.90;99.90
21261;DHT22;10788;47.930;9.766;2024-03-22T06:21:15;6.00;99.90
21261;DHT22;10788;47.930;9.766;2024-03-22T06:23:41;6.10;99.90
21261;DHT22;10788;47.930;9.766;2024-03-22T06:26:09;6.20;99.90
21261;DHT22;10788;47.930;9.766;2024-03-22T06:28:35;6.20;99.90
21261;DHT22;10788;47.930;9.766;2024-03-22T06:31:01;6.30;99.90
21261;DHT22;10788;47.930;9.766;2024-03-22T06:33:26;6.40;99.90
21261;DHT22;10788;47.930;9.766;2024-03-22T06:35:52;6.60;99.90
21261;DHT22;10788;47.930;9.766;2024-03-22T06:38:17;6.70;99.90
21261;DHT22;10788;47.930;9.766;2024-03-22T06:40:44;6.90;99.90
21261;DHT22;10788;47.930;9.766;2024-03-22T06:43:10;7.00;99.90
21261;DHT22;10788;47.930;9.766;2024-03-22T06:45:36;7.20;99.90
21261;DHT22;10788;47.930;9.766;2024-03-22T06:48:01;7.40;99.90
21261;DHT22;10788;47.930;9.766;2024-03-22T06:50:27;7.60;99.90
21261;DHT22;10788;47.930;9.766;2024-03-22T06:52:54;7.80;99.90
21261;DHT22;10788;47.930;9.766;2024-03-22T06:55:20;8.00;99.90
21261;DHT22;10788;47.930;9.766;2024-03-22T06:57:47;8.20;99.90
21261;DHT22;10788;47.930;9.766;2024-03-22T07:00:13;8.40;99.90
21261;DHT22;10788;47.930;9.766;2024-03-22T07:02:39;8.60;99.90
21261;DHT22;10788;47.930;9.766;2024-03-22T07:05:06;8.80;99.90
21261;DHT22;10788;47.930;9.766;2024-03-22T07:07:32;8.90;99.90
21261;DHT22;10788;47.930;9.766;2024-03-22T07:09:58;9.10;99.90
21261;DHT22;10788;47.930;9.766;2024-03-22T07:12:24;9.20;99.90
21261;DHT22;10788;47.930;9.766;2024-03-22T07:14:50;9.40;99.90
21261;DHT22;10788;47.930;9.766;2024-03-22T07:17:15;9.60;99.90
21261;DHT22;10788;47.930;9.766;2024-03-22T07:19:41;9.70;99.90
21261;DHT22;10788;47.930;9.766;2024-03-22T07:22:08;9.80;99.90
21261;DHT22;10788;47.930;9.766;2024-03-22T07:24:34;9.90;99.90
21261;DHT22;10788;47.930;9.766;2024-03-22T07:26:59;10.10;99.90
21261;DHT22;10788;47.930;9.766;2024-03-22T07:29:25;10.20;99.90
21261;DHT22;10788;47.930;9.766;2024-03-22T07:31:51;10.40;99.90
21261;DHT22;10788;47.930;9.766;2024-03-22T07:34:16;10.50;99.90
21261;DHT22;10788;47.930;9.766;2024-03-22T07:36:42;10.60;99.90
21261;DHT22;10788;47.930;9.766;2024-03-22T07:39:08;10.80;99.90
21261;DHT22;10788;47.930;9.766;2024-03-22T07:41:34;11.00;99.90
21261;DHT22;10788;47.930;9.766;2024-03-22T07:44:00;11.20;99.90
21261;DHT22;10788;47.930;9.766;2024-03-22T07:46:26;11.30;99.90
21261;DHT22;10788;47.930;9.766;2024-03-22T07:48:52;11.60;99.90
21261;DHT22;10788;47.930;9.766;2024-03-22T07:51:22;11.80;99.90
21261;DHT22;10788;47.930;9.766;2024-03-22T07:53:47;11.80;99.90
21261;DHT22;10788;47.930;9.766;2024-03-22T07:56:13;11.90;99.90
21261;DHT22;10788;47.930;9.766;2024-03-22T07:58:41;11.90;99.90
21261;DHT22;10788;47.930;9.766;2024-03-22T08:01:08;11.90;99.90
21261;DHT22;10788;47.930;9.766;2024-03-22T08:03:34;12.10;99.90
21261;DHT22;10788;47.930;9.766;2024-03-22T08:06:00;12.20;99.90
21261;DHT22;10788;47.930;9.766;2024-03-22T08:08:25;12.30;99.90
21261;DHT22;10788;47.930;9.766;2024-03-22T08:10:51;12.20;99.90
21261;DHT22;10788;47.930;9.766;2024-03-22T08:13:17;12.30;99.90
21261;DHT22;10788;47.930;9.766;2024-03-22T08:15:43;12.40;99.90
21261;DHT22;10788;47.930;9.766;2024-03-22T08:18:11;12.60;99.90
21261;DHT22;10788;47.930;9.766;2024-03-22T08:20:36;12.70;99.90
21261;DHT22;10788;47.930;9.766;2024-03-22T08:23:07;12.70;99.90
21261;DHT22;10788;47.930;9.766;2024-03-22T08:25:32;12.80;99.90
21261;DHT22;10788;47.930;9.766;2024-03-22T08:27:59;13.00;99.90
21261;DHT22;10788;47.930;9.766;2024-03-22T08:30:25;13.30;99.90
21261;DHT22;10788;47.930;9.766;2024-03-22T08:32:51;13.50;99.90
21261;DHT22;10788;47.930;9.766;2024-03-22T08:35:17;13.70;99.90
21261;DHT22;10788;47.930;9.766;2024-03-22T08:37:43;14.00;99.90
21261;DHT22;10788;47.930;9.766;2024-03-22T08:40:09;14.20;99.90
21261;DHT22;10788;47.930;9.766;2024-03-22T08:42:36;14.30;99.90
21261;DHT22;10788;47.930;9.766;2024-03-22T08:45:01;14.50;99.90
21261;DHT22;10788;47.930;9.766;2024-03-22T08:47:30;14.80;99.90
21261;DHT22;10788;47.930;9.766;2024-03-22T08:49:56;14.90;99.90
21261;DHT22;10788;47.930;9.766;2024-03-22T08:52:23;15.10;99.90
21261;DHT22;10788;47.930;9.766;2024-03-22T08:54:53;15.30;99.90
21261;DHT22;10788;47.930;9.766;2024-03-22T08:57:18;15.60;99.90
21261;DHT22;10788;47.930;9.766;2024-03-22T08:59:45;15.70;99.90
21261;DHT22;10788;47.930;9.766;2024-03-22T09:02:11;15.70;99.90
21261;DHT22;10788;47.930;9.766;2024-03-22T09:04:37;15.80;99.90
21261;DHT22;10788;47.930;9.766;2024-03-22T09:07:03;15.90;99.90
21261;DHT22;10788;47.930;9.766;2024-03-22T09:09:29;15.90;99.90
21261;DHT22;10788;47.930;9.766;2024-03-22T09:11:54;16.00;99.90
21261;DHT22;10788;47.930;9.766;2024-03-22T09:14:20;16.00;99.90
21261;DHT22;10788;47.930;9.766;2024-03-22T09:16:45;16.00;99.90
21261;DHT22;10788;47.930;9.766;2024-03-22T09:19:11;16.10;99.90
21261;DHT22;10788;47.930;9.766;2024-03-22T09:21:37;16.20;99.90
21261;DHT22;10788;47.930;9.766;2024-03-22T09:24:02;16.20;99.90
21261;DHT22;10788;47.930;9.766;2024-03-22T09:26:32;16.30;99.90
21261;DHT22;10788;47.930;9.766;2024-03-22T09:28:58;16.40;99.90
21261;DHT22;10788;47.930;9.766;2024-03-22T09:31:24;16.60;99.90
21261;DHT22;10788;47.930;9.766;2024-03-22T09:33:49;16.60;99.90
21261;DHT22;10788;47.930;9.766;2024-03-22T09:36:15;16.50;99.90
21261;DHT22;10788;47.930;9.766;2024-03-22T09:38:41;16.50;99.90
21261;DHT22;10788;47.930;9.766;2024-03-22T09:41:07;16.70;99.90
21261;DHT22;10788;47.930;9.766;2024-03-22T09:43:33;16.70;99.90
21261;DHT22;10788;47.930;9.766;2024-03-22T09:46:00;17.00;99.90
21261;DHT22;10788;47.930;9.766;2024-03-22T09:48:27;17.10;99.90
21261;DHT22;10788;47.930;9.766;2024-03-22T09:50:54;17.30;99.90
21261;DHT22;10788;47.930;9.766;2024-03-22T09:53:21;17.30;99.90
21261;DHT22;10788;47.930;9.766;2024-03-22T09:55:48;17.40;99.90
21261;DHT22;10788;47.930;9.766;2024-03-22T09:58:14;17.40;99.90
21261;DHT22;10788;47.930;9.766;2024-03-22T10:00:42;17.50;99.90
21261;DHT22;10788;47.930;9.766;2024-03-22T10:03:08;17.30;99.90
21261;DHT22;10788;47.930;9.766;2024-03-22T10:05:34;17.60;99.90
21261;DHT22;10788;47.930;9.766;2024-03-22T10:08:02;17.80;99.90
21261;DHT22;10788;47.930;9.766;2024-03-22T10:10:28;18.00;99.90
21261;DHT22;10788;47.930;9.766;2024-03-22T10:12:54;17.90;99.90
21261;DHT22;10788;47.930;9.766;2024-03-22T10:15:19;17.90;99.90
21261;DHT22;10788;47.930;9.766;2024-03-22T10:17:45;17.80;99.90
21261;DHT22;10788;47.930;9.766;2024-03-22T10:20:14;17.80;99.90
21261;DHT22;10788;47.930;9.766;2024-03-22T10:22:48;17.90;99.90
21261;DHT22;10788;47.930;9.766;2024-03-22T10:25:13;18.00;99.90
21261;DHT22;10788;47.930;9.766;2024-03-22T10:27:40;18.10;99.90
21261;DHT22;10788;47.930;9.766;2024-03-22T10:30:08;18.00;99.90
21261;DHT22;10788;47.930;9.766;2024-03-22T10:32:36;18.10;99.90
21261;DHT22;10788;47.930;9.766;2024-03-22T10:35:02;18.10;99.90
21261;DHT22;10788;47.930;9.766;2024-03-22T10:37:35;18.20;99.90
21261;DHT22;10788;47.930;9.766;2024-03-22T10:40:04;18.30;99.90
21261;DHT22;10788;47.930;9.766;2024-03-22T10:42:40;18.00;99.90
21261;DHT22;10788;47.930;9.766;2024-03-22T10:45:08;17.90;99.90
21261;DHT22;10788;47.930;9.766;2024-03-22T10:47:35;18.00;99.90
21261;DHT22;10788;47.930;9.766;2024-03-22T10:52:34;18.10;99.90
21261;DHT22;10788;47.930;9.766;2024-03-22T10:55:03;18.00;99.90
21261;DHT22;10788;47.930;9.766;2024-03-22T10:57:30;17.80;99.90
21261;DHT22;10788;47.930;9.766;2024-03-22T10:59:56;17.70;99.90
21261;DHT22;10788;47.930;9.766;2024-03-22T11:02:27;17.80;99.90
21261;DHT22;10788;47.930;9.766;2024-03-22T11:04:56;17.80;99.90
21261;DHT22;10788;47.930;9.766;2024-03-22T11:07:23;17.70;99.90
21261;DHT22;10788;47.930;9.766;2024-03-22T11:09:56;17.60;99.90
21261;DHT22;10788;47.930;9.766;2024-03-22T11:12:24;17.60;99.90
21261;DHT22;10788;47.930;9.766;2024-03-22T11:14:51;17.60;99.90
21261;DHT22;10788;47.930;9.766;2024-03-22T11:17:17;17.70;99.90
21261;DHT22;10788;47.930;9.766;2024-03-22T11:19:43;17.80;99.90
21261;DHT22;10788;47.930;9.766;2024-03-22T11:22:09;17.80;99.90
21261;DHT22;10788;47.930;9.766;2024-03-22T11:24:37;17.80;99.90
21261;DHT22;10788;47.930;9.766;2024-03-22T11:27:03;17.80;99.90
21261;DHT22;10788;47.930;9.766;2024-03-22T11:29:29;17.80;99.90
21261;DHT22;10788;47.930;9.766;2024-03-22T11:31:54;17.80;99.90
21261;DHT22;10788;47.930;9.766;2024-03-22T11:34:20;17.60;99.90
21261;DHT22;10788;47.930;9.766;2024-03-22T11:36:46;17.60;99.90
21261;DHT22;10788;47.930;9.766;2024-03-22T11:39:12;17.60;99.90
21261;DHT22;10788;47.930;9.766;2024-03-22T11:41:38;17.60;99.90
21261;DHT22;10788;47.930;9.766;2024-03-22T11:44:05;17.50;99.90
21261;DHT22;10788;47.930;9.766;2024-03-22T11:46:30;17.50;99.90
21261;DHT22;10788;47.930;9.766;2024-03-22T11:48:56;17.60;99.90
21261;DHT22;10788;47.930;9.766;2024-03-22T11:51:24;17.70;99.90
21261;DHT22;10788;47.930;9.766;2024-03-22T11:53:53;17.60;99.90
21261;DHT22;10788;47.930;9.766;2024-03-22T11:56:21;17.60;99.90
21261;DHT22;10788;47.930;9.766;2024-03-22T11:58:47;17.60;99.90
21261;DHT22;10788;47.930;9.766;2024-03-22T12:01:17;17.60;97.80
21261;DHT22;10788;47.930;9.766;2024-03-22T12:03:48;17.50;96.70
21261;DHT22;10788;47.930;9.766;2024-03-22T12:06:15;17.50;96.00
21261;DHT22;10788;47.930;9.766;2024-03-22T12:08:41;17.40;97.40
21261;DHT22;10788;47.930;9.766;2024-03-22T12:11:08;17.30;98.30
21261;DHT22;10788;47.930;9.766;2024-03-22T12:13:34;17.30;98.20
21261;DHT22;10788;47.930;9.766;2024-03-22T12:16:00;17.40;96.40
21261;DHT22;10788;47.930;9.766;2024-03-22T12:18:27;17.20;96.30
21261;DHT22;10788;47.930;9.766;2024-03-22T12:20:53;17.30;96.60
21261;DHT22;10788;47.930;9.766;2024-03-22T12:23:18;17.40;97.90
21261;DHT22;10788;47.930;9.766;2024-03-22T12:25:44;17.40;97.10
21261;DHT22;10788;47.930;9.766;2024-03-22T12:28:09;17.40;97.80
21261;DHT22;10788;47.930;9.766;2024-03-22T12:30:35;17.30;94.50
21261;DHT22;10788;47.930;9.766;2024-03-22T12:33:01;17.40;93.00
21261;DHT22;10788;47.930;9.766;2024-03-22T12:35:27;17.40;90.90
21261;DHT22;10788;47.930;9.766;2024-03-22T12:37:53;17.40;93.20
21261;DHT22;10788;47.930;9.766;2024-03-22T12:40:19;17.50;94.90
21261;DHT22;10788;47.930;9.766;2024-03-22T12:42:45;17.40;94.00
21261;DHT22;10788;47.930;9.766;2024-03-22T12:45:10;17.50;93.70
21261;DHT22;10788;47.930;9.766;2024-03-22T12:47:36;17.50;94.70
21261;DHT22;10788;47.930;9.766;2024-03-22T12:50:04;17.60;94.60
21261;DHT22;10788;47.930;9.766;2024-03-22T12:52:30;17.60;94.20
21261;DHT22;10788;47.930;9.766;2024-03-22T12:54:55;17.50;94.70
21261;DHT22;10788;47.930;9.766;2024-03-22T12:57:21;17.50;95.90
21261;DHT22;10788;47.930;9.766;2024-03-22T12:59:46;17.50;97.00
21261;DHT22;10788;47.930;9.766;2024-03-22T13:02:12;17.40;93.70
21261;DHT22;10788;47.930;9.766;2024-03-22T13:04:38;17.50;93.10
21261;DHT22;10788;47.930;9.766;2024-03-22T13:07:03;17.50;92.40
21261;DHT22;10788;47.930;9.766;2024-03-22T13:09:29;17.60;92.90
21261;DHT22;10788;47.930;9.766;2024-03-22T13:11:54;17.60;92.00
21261;DHT22;10788;47.930;9.766;2024-03-22T13:14:20;17.60;90.40
21261;DHT22;10788;47.930;9.766;2024-03-22T13:16:46;17.50;91.30
21261;DHT22;10788;47.930;9.766;2024-03-22T13:19:12;17.50;92.70
21261;DHT22;10788;47.930;9.766;2024-03-22T13:21:39;17.60;92.90
21261;DHT22;10788;47.930;9.766;2024-03-22T13:24:05;17.60;91.00
21261;DHT22;10788;47.930;9.766;2024-03-22T13:26:33;17.50;91.60
21261;DHT22;10788;47.930;9.766;2024-03-22T13:28:58;17.60;92.50
21261;DHT22;10788;47.930;9.766;2024-03-22T13:31:24;17.50;93.00
21261;DHT22;10788;47.930;9.766;2024-03-22T13:33:50;17.50;91.90
21261;DHT22;10788;47.930;9.766;2024-03-22T13:36:15;17.60;93.40
21261;DHT22;10788;47.930;9.766;2024-03-22T13:38:41;17.60;91.70
21261;DHT22;10788;47.930;9.766;2024-03-22T13:41:07;17.60;91.90
21261;DHT22;10788;47.930;9.766;2024-03-22T13:43:32;17.60;92.00
21261;DHT22;10788;47.930;9.766;2024-03-22T13:46:00;17.50;92.80
21261;DHT22;10788;47.930;9.766;2024-03-22T13:48:25;17.40;93.00
21261;DHT22;10788;47.930;9.766;2024-03-22T13:50:52;17.40;93.20
21261;DHT22;10788;47.930;9.766;2024-03-22T13:53:18;17.30;93.60
21261;DHT22;10788;47.930;9.766;2024-03-22T13:55:44;17.40;93.20
21261;DHT22;10788;47.930;9.766;2024-03-22T13:58:10;17.40;92.80
21261;DHT22;10788;47.930;9.766;2024-03-22T14:00:35;17.40;93.10
21261;DHT22;10788;47.930;9.766;2024-03-22T14:03:01;17.40;92.70
21261;DHT22;10788;47.930;9.766;2024-03-22T14:05:27;17.40;93.50
21261;DHT22;10788;47.930;9.766;2024-03-22T14:07:53;17.50;92.50
21261;DHT22;10788;47.930;9.766;2024-03-22T14:10:19;17.60;91.40
21261;DHT22;10788;47.930;9.766;2024-03-22T14:12:46;17.60;91.90
21261;DHT22;10788;47.930;9.766;2024-03-22T14:15:12;17.70;92.70
21261;DHT22;10788;47.930;9.766;2024-03-22T14:17:38;17.60;92.80
21261;DHT22;10788;47.930;9.766;2024-03-22T14:20:05;17.50;93.10
21261;DHT22;10788;47.930;9.766;2024-03-22T14:22:40;17.50;92.30
21261;DHT22;10788;47.930;9.766;2024-03-22T14:25:06;17.50;92.90
21261;DHT22;10788;47.930;9.766;2024-03-22T14:27:33;17.50;93.00
21261;DHT22;10788;47.930;9.766;2024-03-22T14:29:59;17.60;93.40
21261;DHT22;10788;47.930;9.766;2024-03-22T14:32:25;17.60;93.40
21261;DHT22;10788;47.930;9.766;2024-03-22T14:34:52;17.60;92.70
21261;DHT22;10788;47.930;9.766;2024-03-22T14:37:17;17.60;91.70
21261;DHT22;10788;47.930;9.766;2024-03-22T14:39:43;17.50;91.60
21261;DHT22;10788;47.930;9.766;2024-03-22T14:42:09;17.30;90.50
21261;DHT22;10788;47.930;9.766;2024-03-22T14:44:35;17.30;90.10
21261;DHT22;10788;47.930;9.766;2024-03-22T14:47:00;17.30;90.30
21261;DHT22;10788;47.930;9.766;2024-03-22T14:49:26;17.30;91.00
21261;DHT22;10788;47.930;9.766;2024-03-22T14:51:52;17.30;92.10
21261;DHT22;10788;47.930;9.766;2024-03-22T14:54:17;17.40;91.80
21261;DHT22;10788;47.930;9.766;2024-03-22T14:56:43;17.50;92.10
21261;DHT22;10788;47.930;9.766;2024-03-22T14:59:09;17.60;91.00
21261;DHT22;10788;47.930;9.766;2024-03-22T15:01:34;17.50;90.90
21261;DHT22;10788;47.930;9.766;2024-03-22T15:04:01;17.60;92.00
21261;DHT22;10788;47.930;9.766;2024-03-22T15:06:27;17.60;91.00
21261;DHT22;10788;47.930;9.766;2024-03-22T15:08:55;17.60;91.10
21261;DHT22;10788;47.930;9.766;2024-03-22T15:11:21;17.50;90.20
21261;DHT22;10788;47.930;9.766;2024-03-22T15:13:47;17.50;90.50
21261;DHT22;10788;47.930;9.766;2024-03-22T15:16:12;17.50;90.60
21261;DHT22;10788;47.930;9.766;2024-03-22T15:18:39;17.50;91.00
21261;DHT22;10788;47.930;9.766;2024-03-22T15:21:07;17.60;91.10
21261;DHT22;10788;47.930;9.766;2024-03-22T15:23:34;17.50;90.90
21261;DHT22;10788;47.930;9.766;2024-03-22T15:26:00;17.30;90.40
21261;DHT22;10788;47.930;9.766;2024-03-22T15:28:25;17.30;90.90
21261;DHT22;10788;47.930;9.766;2024-03-22T15:30:52;17.20;90.90
21261;DHT22;10788;47.930;9.766;2024-03-22T15:33:17;17.30;90.30